createdAt,value
2022-09-15T04:00:16.871Z,3.35
2022-09-15T04:03:19.488Z,3.30
2022-09-15T04:06:22.770Z,3.17
2022-09-15T04:09:25.647Z,2.80
2022-09-15T04:12:29.553Z,2.80
2022-09-15T04:15:31.911Z,3.15
2022-09-15T04:18:35.335Z,2.80
2022-09-15T04:21:37.607Z,2.65
2022-09-15T04:24:39.621Z,2.92
2022-09-15T04:27:41.920Z,2.65
2022-09-15T04:30:43.933Z,2.85
2022-09-15T04:33:47.089Z,2.67
2022-09-15T04:36:49.706Z,3.00
2022-09-15T04:39:52.209Z,2.70
2022-09-15T04:42:54.297Z,2.80
2022-09-15T04:45:56.590Z,2.47
2022-09-15T04:48:58.739Z,2.47
2022-09-15T04:52:01.141Z,2.83
2022-09-15T04:55:03.305Z,2.60
2022-09-15T04:58:05.600Z,2.28
2022-09-15T05:01:13.957Z,2.78
2022-09-15T05:04:16.427Z,2.50
2022-09-15T05:07:19.633Z,3.00
2022-09-15T05:10:22.168Z,2.37
2022-09-15T05:13:24.205Z,2.53
2022-09-15T05:16:29.086Z,2.40
2022-09-15T05:19:31.145Z,2.58
2022-09-15T05:22:33.425Z,2.97
2022-09-15T05:25:35.448Z,3.00
2022-09-15T05:28:37.928Z,2.92
2022-09-15T05:31:40.017Z,3.00
2022-09-15T05:34:42.361Z,2.90
2022-09-15T05:37:44.414Z,3.10
2022-09-15T05:40:46.822Z,3.15
2022-09-15T05:43:50.708Z,3.00
2022-09-15T05:46:53.071Z,3.80
2022-09-15T05:49:55.552Z,3.95
2022-09-15T05:52:58.319Z,3.53
2022-09-15T05:56:10.614Z,5.03
2022-09-15T05:59:13.094Z,10.48
2022-09-15T06:02:15.253Z,3.40
2022-09-15T06:05:17.609Z,3.33
2022-09-15T06:08:19.926Z,3.40
2022-09-15T06:11:28.704Z,3.30
2022-09-15T06:14:30.740Z,3.60
2022-09-15T06:17:33.076Z,5.12
2022-09-15T06:20:35.102Z,4.45
2022-09-15T06:23:38.248Z,3.55
2022-09-15T06:26:40.477Z,3.90
2022-09-15T06:29:42.788Z,3.67
2022-09-15T06:32:48.112Z,3.70
2022-09-15T06:38:53.077Z,3.87
2022-09-15T06:42:02.727Z,3.83
2022-09-15T06:45:06.414Z,3.78
2022-09-15T06:48:23.926Z,3.97
2022-09-15T06:51:31.302Z,3.92
2022-09-15T06:54:33.873Z,3.85
2022-09-15T06:57:36.335Z,3.90
2022-09-15T07:00:38.681Z,3.60
2022-09-15T07:03:43.537Z,4.10
2022-09-15T07:06:46.067Z,3.87
2022-09-15T07:09:49.132Z,3.17
2022-09-15T07:12:51.635Z,3.58
2022-09-15T07:15:55.951Z,3.78
2022-09-15T07:19:01.150Z,3.72
2022-09-15T07:22:03.173Z,4.65
2022-09-15T07:25:05.963Z,3.90
2022-09-15T07:28:07.962Z,4.10
2022-09-15T07:31:13.286Z,3.90
2022-09-15T07:34:15.418Z,3.97
2022-09-15T07:37:18.287Z,3.45
2022-09-15T07:40:21.954Z,3.60
2022-09-15T07:43:24.289Z,3.70
2022-09-15T07:46:29.402Z,3.20
2022-09-15T07:49:31.693Z,3.35
2022-09-15T07:52:33.827Z,2.97
2022-09-15T07:55:36.104Z,3.08
2022-09-15T07:58:38.326Z,2.58
2022-09-15T08:01:40.640Z,2.75
2022-09-15T08:04:43.409Z,2.72
2022-09-15T08:07:45.472Z,2.65
2022-09-15T08:10:47.750Z,3.42
2022-09-15T08:13:51.077Z,2.85
2022-09-15T08:16:53.392Z,2.60
2022-09-15T08:19:55.469Z,2.90
2022-09-15T08:22:57.838Z,2.58
2022-09-15T08:26:00.299Z,2.47
2022-09-15T08:29:02.588Z,3.12
2022-09-15T08:32:05.187Z,2.50
2022-09-15T08:35:08.638Z,2.25
2022-09-15T08:38:11.071Z,2.50
2022-09-15T08:41:27.454Z,2.30
2022-09-15T08:44:38.251Z,3.03
2022-09-15T08:47:44.968Z,2.00
2022-09-15T08:50:52.314Z,2.50
2022-09-15T08:54:02.138Z,2.45
2022-09-15T08:57:06.221Z,2.60
2022-09-15T09:00:15.608Z,2.33
2022-09-15T09:03:17.677Z,2.50
2022-09-15T09:06:41.177Z,2.40
2022-09-15T09:10:24.942Z,2.30
2022-09-15T09:13:49.142Z,2.05
2022-09-15T09:17:10.633Z,2.10
2022-09-15T09:20:32.208Z,3.08
2022-09-15T09:23:49.706Z,1.75
2022-09-15T09:26:55.315Z,1.98
2022-09-15T09:30:07.466Z,2.28
2022-09-15T09:33:38.697Z,1.60
2022-09-15T09:36:40.842Z,4.30
2022-09-15T09:39:43.122Z,2.03
2022-09-15T09:42:45.425Z,1.52
2022-09-15T09:45:47.761Z,1.40
2022-09-15T09:48:58.690Z,1.33
2022-09-15T09:52:03.536Z,1.40
2022-09-15T09:55:25.311Z,1.67
2022-09-15T09:58:27.607Z,1.42
2022-09-15T10:01:30.375Z,1.50
2022-09-15T10:04:32.756Z,1.40
2022-09-15T10:07:41.118Z,1.42
2022-09-15T10:10:52.638Z,1.95
2022-09-15T10:13:56.122Z,1.35
2022-09-15T10:17:20.301Z,1.20
2022-09-15T10:20:28.193Z,1.40
2022-09-15T10:23:32.724Z,1.52
2022-09-15T10:26:34.830Z,1.70
2022-09-15T10:29:39.277Z,1.42
2022-09-15T10:32:42.698Z,1.40
2022-09-15T10:35:45.425Z,1.10
2022-09-15T10:39:24.969Z,1.40
2022-09-15T10:42:50.149Z,1.12
2022-09-15T10:46:04.851Z,2.03
2022-09-15T10:49:16.006Z,1.48
2022-09-15T10:52:58.410Z,1.90
2022-09-15T10:56:09.614Z,1.90
2022-09-15T10:59:30.379Z,1.60
2022-09-15T11:02:57.087Z,1.85
2022-09-15T11:06:27.021Z,1.70
2022-09-15T11:09:48.618Z,2.15
2022-09-15T11:13:15.291Z,2.28
2022-09-15T11:16:49.017Z,1.75
2022-09-15T11:20:25.207Z,2.37
2022-09-15T11:23:40.466Z,2.62
2022-09-15T11:26:52.112Z,2.80
2022-09-15T11:30:01.148Z,2.50
2022-09-15T11:33:23.696Z,3.25
2022-09-15T11:36:37.082Z,2.83
2022-09-15T11:40:09.121Z,2.90
2022-09-15T11:43:37.459Z,3.00
2022-09-15T11:47:02.629Z,3.03
2022-09-15T11:50:11.033Z,2.90
2022-09-15T11:53:25.943Z,3.10
2022-09-15T11:56:45.609Z,2.70
2022-09-15T11:59:54.709Z,2.80
2022-09-15T12:03:32.520Z,3.25
2022-09-15T12:06:51.623Z,2.67
2022-09-15T12:09:54.139Z,3.25
2022-09-15T12:13:00.067Z,2.80
2022-09-15T12:16:03.962Z,2.65
2022-09-15T12:19:18.516Z,3.05
2022-09-15T12:22:35.009Z,2.95
2022-09-15T12:26:14.295Z,2.65
2022-09-15T12:29:22.345Z,2.70
2022-09-15T12:32:33.402Z,2.70
2022-09-15T12:35:35.710Z,2.33
2022-09-15T12:38:38.010Z,3.22
2022-09-15T12:41:47.620Z,2.92
2022-09-15T12:45:04.133Z,3.12
2022-09-15T12:48:19.924Z,3.45
2022-09-15T12:51:25.228Z,4.30
2022-09-15T12:54:31.374Z,3.65
2022-09-15T12:57:36.146Z,2.55
2022-09-15T13:00:49.981Z,3.75
2022-09-15T13:04:05.594Z,2.00
2022-09-15T13:07:17.158Z,2.78
2022-09-15T13:10:27.843Z,3.15
2022-09-15T13:14:08.029Z,2.37
2022-09-15T13:17:18.614Z,1.77
2022-09-15T13:20:31.774Z,1.30
2022-09-15T13:23:39.810Z,1.65
2022-09-15T13:26:44.638Z,1.60
2022-09-15T13:29:59.929Z,1.50
2022-09-15T13:33:23.983Z,1.92
2022-09-15T13:40:37.973Z,1.60
2022-09-15T13:43:52.189Z,1.50
2022-09-15T13:47:09.460Z,1.70
2022-09-15T13:50:17.274Z,1.77
2022-09-15T13:53:32.214Z,2.08
2022-09-15T13:56:41.205Z,2.47
2022-09-15T13:59:43.268Z,2.03
2022-09-15T14:05:56.637Z,2.35
2022-09-15T14:09:03.927Z,2.42
2022-09-15T14:12:12.056Z,2.22
2022-09-15T14:15:22.709Z,2.75
2022-09-15T14:18:25.401Z,2.92
2022-09-15T14:21:31.909Z,2.42
2022-09-15T14:24:40.043Z,2.70
2022-09-15T14:27:45.511Z,2.62
2022-09-15T14:30:48.510Z,2.62
2022-09-15T14:33:50.574Z,2.78
2022-09-15T14:37:05.644Z,3.30
2022-09-15T14:40:23.431Z,4.07
2022-09-15T14:43:28.180Z,3.17
2022-09-15T14:46:38.180Z,3.42
2022-09-15T14:49:40.479Z,3.35
2022-09-15T14:53:07.537Z,3.47
2022-09-15T14:56:17.029Z,3.62
2022-09-15T14:59:41.658Z,3.30
2022-09-15T15:03:17.555Z,3.97
2022-09-15T15:06:29.829Z,3.10
2022-09-15T15:09:51.194Z,2.50
2022-09-15T15:12:58.695Z,2.70
2022-09-15T15:16:01.202Z,3.15
2022-09-15T15:19:03.522Z,3.15
2022-09-15T15:22:11.989Z,2.87
2022-09-15T15:25:22.059Z,2.70
2022-09-15T15:28:38.548Z,2.85
2022-09-15T15:31:40.653Z,2.60
2022-09-15T15:34:50.546Z,2.90
2022-09-15T15:38:11.068Z,2.83
